createdAt,value
2018-10-06T00:01:19.324Z,13.30
2018-10-06T00:03:51.871Z,13.20
2018-10-06T00:06:24.457Z,13.20
2018-10-06T00:08:58.463Z,13.20
2018-10-06T00:11:31.083Z,13.20
2018-10-06T00:14:03.558Z,13.20
2018-10-06T00:16:36.376Z,13.20
2018-10-06T00:19:08.955Z,13.20
2018-10-06T00:21:41.692Z,13.20
2018-10-06T00:24:14.282Z,13.20
2018-10-06T00:26:46.874Z,13.20
2018-10-06T00:29:20.961Z,13.20
2018-10-06T00:31:53.769Z,13.20
2018-10-06T00:34:26.468Z,13.10
2018-10-06T00:36:59.018Z,13.10
2018-10-06T00:39:31.646Z,13.00
2018-10-06T00:42:04.145Z,12.90
2018-10-06T00:44:36.802Z,12.80
2018-10-06T00:47:09.538Z,12.80
2018-10-06T00:49:42.300Z,12.80
2018-10-06T00:52:14.739Z,12.90
2018-10-06T00:54:47.531Z,12.80
2018-10-06T00:57:20.203Z,12.90
2018-10-06T00:59:52.838Z,12.90
2018-10-06T01:02:25.560Z,13.00
2018-10-06T01:04:58.532Z,13.00
2018-10-06T01:07:32.036Z,12.90
2018-10-06T01:10:05.592Z,12.90
2018-10-06T01:12:38.860Z,12.90
2018-10-06T01:15:11.675Z,12.90
2018-10-06T01:17:44.971Z,12.90
2018-10-06T01:20:17.738Z,12.80
2018-10-06T01:22:50.952Z,12.80
2018-10-06T01:25:23.675Z,12.70
2018-10-06T01:27:56.269Z,12.80
2018-10-06T01:30:30.010Z,12.80
2018-10-06T01:33:02.894Z,12.70
2018-10-06T01:35:36.014Z,12.60
2018-10-06T01:38:09.358Z,12.60
2018-10-06T01:40:42.109Z,12.70
2018-10-06T01:43:15.271Z,12.70
2018-10-06T01:45:47.936Z,12.70
2018-10-06T01:48:20.889Z,12.70
2018-10-06T01:50:53.925Z,12.80
2018-10-06T01:53:26.686Z,12.80
2018-10-06T01:55:59.436Z,12.80
2018-10-06T01:58:32.212Z,12.80
2018-10-06T02:01:04.805Z,12.80
2018-10-06T02:03:38.282Z,12.70
2018-10-06T02:06:11.315Z,12.70
2018-10-06T02:08:43.988Z,12.70
2018-10-06T02:11:16.584Z,12.70
2018-10-06T02:13:49.123Z,12.70
2018-10-06T02:16:23.038Z,12.70
2018-10-06T02:18:56.023Z,12.70
2018-10-06T02:21:28.569Z,12.70
2018-10-06T02:24:01.109Z,12.70
2018-10-06T02:26:34.208Z,12.70
2018-10-06T02:29:06.961Z,12.70
2018-10-06T02:31:39.716Z,12.60
2018-10-06T02:34:12.248Z,12.70
2018-10-06T02:36:44.795Z,12.60
2018-10-06T02:39:17.390Z,12.60
2018-10-06T02:41:50.014Z,12.60
2018-10-06T02:44:23.432Z,12.50
2018-10-06T02:46:56.105Z,12.50
2018-10-06T02:49:28.619Z,12.50
2018-10-06T02:52:01.600Z,12.40
2018-10-06T02:54:34.163Z,12.50
2018-10-06T02:57:06.942Z,12.50
2018-10-06T02:59:39.494Z,12.60
2018-10-06T03:02:12.031Z,12.60
2018-10-06T03:04:44.497Z,12.60
2018-10-06T03:07:17.105Z,12.60
2018-10-06T03:09:49.659Z,12.60
2018-10-06T03:12:22.595Z,12.60
2018-10-06T03:14:55.164Z,12.50
2018-10-06T03:17:29.727Z,12.40
2018-10-06T03:20:02.554Z,12.40
2018-10-06T03:22:36.951Z,12.40
2018-10-06T03:25:09.808Z,12.50
2018-10-06T03:27:42.511Z,12.30
2018-10-06T03:30:15.227Z,12.30
2018-10-06T03:32:47.913Z,12.30
2018-10-06T03:35:20.621Z,12.30
2018-10-06T03:37:53.356Z,12.30
2018-10-06T03:40:26.018Z,12.20
2018-10-06T03:42:58.618Z,12.20
2018-10-06T03:45:31.219Z,12.20
2018-10-06T03:48:04.025Z,12.30
2018-10-06T03:50:36.617Z,12.30
2018-10-06T03:53:09.733Z,12.30
2018-10-06T03:55:42.698Z,12.40
2018-10-06T03:58:15.212Z,12.40
2018-10-06T04:00:47.757Z,12.40
2018-10-06T04:03:20.485Z,12.40
2018-10-06T04:05:53.126Z,12.30
2018-10-06T04:08:25.789Z,12.20
2018-10-06T04:10:58.416Z,12.20
2018-10-06T04:13:31.067Z,12.20
2018-10-06T04:16:03.835Z,12.20
2018-10-06T04:18:37.673Z,12.20
2018-10-06T04:21:10.398Z,12.10
2018-10-06T04:23:43.352Z,12.10
2018-10-06T04:26:15.953Z,12.20
2018-10-06T04:28:48.618Z,12.10
2018-10-06T04:31:21.454Z,12.20
2018-10-06T04:33:54.459Z,12.20
2018-10-06T04:36:27.204Z,12.20
2018-10-06T04:38:59.785Z,12.30
2018-10-06T04:41:32.727Z,12.30
2018-10-06T04:44:05.654Z,12.10
2018-10-06T04:46:39.187Z,12.10
2018-10-06T04:49:12.038Z,12.10
2018-10-06T04:51:45.039Z,12.10
2018-10-06T04:54:17.693Z,12.10
2018-10-06T04:56:50.315Z,12.10
2018-10-06T04:59:22.939Z,12.00
2018-10-06T05:01:55.513Z,12.00
2018-10-06T05:04:28.149Z,12.00
2018-10-06T05:07:00.625Z,12.00
2018-10-06T05:09:33.094Z,12.10
2018-10-06T05:12:05.994Z,11.90
2018-10-06T05:14:38.496Z,11.90
2018-10-06T05:17:11.022Z,11.90
2018-10-06T05:19:43.556Z,11.90
2018-10-06T05:22:16.025Z,11.90
2018-10-06T05:24:48.598Z,12.00
2018-10-06T05:27:21.064Z,11.90
2018-10-06T05:29:53.635Z,11.90
2018-10-06T05:32:26.189Z,12.00
2018-10-06T05:34:59.503Z,12.00
2018-10-06T05:37:32.110Z,11.90
2018-10-06T05:40:04.653Z,11.90
2018-10-06T05:42:37.135Z,11.90
2018-10-06T05:45:09.742Z,11.80
2018-10-06T05:47:42.315Z,11.90
2018-10-06T05:50:14.751Z,11.90
2018-10-06T05:52:47.249Z,11.90
2018-10-06T05:55:19.784Z,11.90
2018-10-06T05:57:52.499Z,11.80
2018-10-06T06:00:24.984Z,11.90
2018-10-06T06:02:57.820Z,11.90
2018-10-06T06:05:30.487Z,12.00
2018-10-06T06:08:02.964Z,12.00
2018-10-06T06:10:35.683Z,12.00
2018-10-06T06:13:08.129Z,12.00
2018-10-06T06:15:41.338Z,12.10
2018-10-06T06:18:13.843Z,12.10
2018-10-06T06:20:46.415Z,12.10
2018-10-06T06:23:18.967Z,12.20
2018-10-06T06:25:51.448Z,12.20
2018-10-06T06:28:24.025Z,12.20
2018-10-06T06:30:57.238Z,12.30
2018-10-06T06:33:29.894Z,12.30
2018-10-06T06:36:05.079Z,12.30
2018-10-06T06:38:39.625Z,12.40
2018-10-06T06:41:12.273Z,12.40
2018-10-06T06:43:45.092Z,12.40
2018-10-06T06:46:17.629Z,12.50
2018-10-06T06:48:50.505Z,12.50
2018-10-06T06:51:23.060Z,12.50
2018-10-06T06:53:55.577Z,12.40
2018-10-06T06:56:28.157Z,12.50
2018-10-06T06:59:00.778Z,12.60
2018-10-06T07:01:33.540Z,12.70
2018-10-06T07:04:07.243Z,12.60
2018-10-06T07:06:39.745Z,12.70
2018-10-06T07:09:12.214Z,12.70
2018-10-06T07:14:17.479Z,12.80
2018-10-06T07:16:51.129Z,12.90
2018-10-06T07:19:23.993Z,12.90
2018-10-06T07:21:56.568Z,12.90
2018-10-06T07:24:29.165Z,13.00
2018-10-06T07:27:02.028Z,13.10
2018-10-06T07:29:34.535Z,13.20
2018-10-06T07:32:07.177Z,13.20
2018-10-06T07:34:41.143Z,13.30
2018-10-06T07:37:14.038Z,13.40
2018-10-06T07:39:46.669Z,13.50
2018-10-06T07:42:21.706Z,13.50
2018-10-06T07:44:54.312Z,13.50
2018-10-06T07:47:26.881Z,13.60
2018-10-06T07:49:59.401Z,13.60
2018-10-06T07:52:31.920Z,13.70
2018-10-06T07:55:04.730Z,13.70
2018-10-06T07:57:37.255Z,13.80
2018-10-06T08:00:09.964Z,13.90
2018-10-06T08:02:45.508Z,14.00
2018-10-06T08:05:18.203Z,14.00
2018-10-06T08:07:50.813Z,14.00
2018-10-06T08:10:23.331Z,14.10
2018-10-06T08:12:55.837Z,14.10
2018-10-06T08:15:28.461Z,14.20
2018-10-06T08:18:02.264Z,14.30
2018-10-06T08:20:34.793Z,14.30
2018-10-06T08:23:07.315Z,14.30
2018-10-06T08:25:39.809Z,14.40
2018-10-06T08:28:12.259Z,14.50
2018-10-06T08:30:44.980Z,14.50
2018-10-06T08:33:17.570Z,14.60
2018-10-06T08:35:50.159Z,14.60
2018-10-06T08:38:23.151Z,14.70
2018-10-06T08:40:55.579Z,14.70
2018-10-06T08:43:28.414Z,14.80
2018-10-06T08:46:00.869Z,14.80
2018-10-06T08:48:33.733Z,14.90
2018-10-06T08:53:39.083Z,15.00
2018-10-06T08:56:11.648Z,15.10
2018-10-06T08:58:44.458Z,15.30
2018-10-06T09:01:16.898Z,15.40
2018-10-06T09:03:49.406Z,15.40
2018-10-06T09:06:21.929Z,15.50
2018-10-06T09:08:54.349Z,15.60
2018-10-06T09:11:26.858Z,15.70
2018-10-06T09:13:59.483Z,15.80
2018-10-06T09:16:31.911Z,15.80
2018-10-06T09:19:07.699Z,15.80
2018-10-06T09:21:40.170Z,15.80
2018-10-06T09:24:12.629Z,16.00
2018-10-06T09:26:45.241Z,16.00
2018-10-06T09:29:17.853Z,16.20
2018-10-06T09:31:50.320Z,16.40
2018-10-06T09:34:22.855Z,16.60
2018-10-06T09:36:55.348Z,16.70
2018-10-06T09:39:27.757Z,16.80
2018-10-06T09:42:00.349Z,16.80
2018-10-06T09:44:32.945Z,16.90
2018-10-06T09:47:05.701Z,17.10
2018-10-06T09:49:38.114Z,17.00
2018-10-06T09:52:10.674Z,17.20
2018-10-06T09:54:43.149Z,17.20
2018-10-06T09:57:15.694Z,17.20
2018-10-06T09:59:48.887Z,17.30
2018-10-06T10:02:27.709Z,17.50
2018-10-06T10:05:06.444Z,17.50
2018-10-06T10:07:39.091Z,17.50
2018-10-06T10:10:11.568Z,17.70
2018-10-06T10:12:44.091Z,17.80
2018-10-06T10:15:16.544Z,17.80
2018-10-06T10:17:49.581Z,17.90
2018-10-06T10:20:21.965Z,18.10
2018-10-06T10:22:54.601Z,18.30
2018-10-06T10:30:31.934Z,18.70
2018-10-06T10:33:04.412Z,18.70
2018-10-06T10:35:36.908Z,18.80
2018-10-06T10:38:09.713Z,18.80
2018-10-06T10:40:42.413Z,18.90
2018-10-06T10:43:14.999Z,18.90
2018-10-06T10:45:47.570Z,18.80
2018-10-06T10:48:20.037Z,18.90
2018-10-06T10:50:52.595Z,18.90
2018-10-06T10:53:25.309Z,18.90
2018-10-06T10:55:58.119Z,18.90
2018-10-06T10:58:31.034Z,18.90
2018-10-06T11:01:03.834Z,18.90
2018-10-06T11:03:36.385Z,19.00
2018-10-06T11:06:09.064Z,19.00
2018-10-06T11:13:46.617Z,19.20
2018-10-06T11:16:19.138Z,19.30
2018-10-06T11:18:51.619Z,19.40
2018-10-06T11:21:24.748Z,19.30
2018-10-06T11:23:57.424Z,19.40
2018-10-06T11:26:29.945Z,19.60
2018-10-06T11:29:02.572Z,19.60
2018-10-06T11:31:35.084Z,19.60
2018-10-06T11:34:07.612Z,19.60
2018-10-06T11:36:40.931Z,19.70
2018-10-06T11:39:13.548Z,19.70
2018-10-06T11:41:46.095Z,19.70
2018-10-06T11:44:18.603Z,19.70
2018-10-06T11:46:51.045Z,19.70
2018-10-06T11:49:23.518Z,19.60
2018-10-06T11:51:55.943Z,19.60
2018-10-06T11:54:28.505Z,19.60
2018-10-06T11:57:00.975Z,19.60
2018-10-06T11:59:33.427Z,19.70
2018-10-06T12:02:06.276Z,19.80
2018-10-06T12:04:38.899Z,19.70
2018-10-06T12:07:11.545Z,19.70
2018-10-06T12:09:43.999Z,19.70
2018-10-06T12:12:16.648Z,19.70
2018-10-06T12:14:49.150Z,19.80
2018-10-06T12:17:21.723Z,19.80
2018-10-06T12:19:54.192Z,19.90
2018-10-06T12:22:26.853Z,19.80
2018-10-06T12:24:59.350Z,19.80
2018-10-06T12:27:31.857Z,19.90
2018-10-06T12:30:04.508Z,19.90
2018-10-06T12:32:37.108Z,20.00
2018-10-06T12:35:09.678Z,20.00
2018-10-06T12:37:42.190Z,20.10
2018-10-06T12:40:14.887Z,20.00
2018-10-06T12:42:48.944Z,20.10
2018-10-06T12:45:21.516Z,20.20
2018-10-06T12:47:54.004Z,20.20
2018-10-06T12:50:26.485Z,20.30
2018-10-06T12:52:58.989Z,20.40
2018-10-06T12:55:31.739Z,20.30
2018-10-06T12:58:04.271Z,20.30
2018-10-06T13:00:36.892Z,20.30
2018-10-06T13:03:09.572Z,20.50
2018-10-06T13:05:42.072Z,20.50
2018-10-06T13:08:14.571Z,20.40
2018-10-06T13:10:47.042Z,20.50
2018-10-06T13:13:19.874Z,20.60
2018-10-06T13:15:52.395Z,20.60
2018-10-06T13:18:25.011Z,20.50
2018-10-06T13:20:57.446Z,20.40
2018-10-06T13:23:29.988Z,20.40
2018-10-06T13:26:02.418Z,20.50
2018-10-06T13:28:34.996Z,20.50
2018-10-06T13:31:07.680Z,20.70
2018-10-06T13:33:40.291Z,20.70
2018-10-06T13:36:12.778Z,20.80
2018-10-06T13:38:45.308Z,21.00
2018-10-06T13:41:17.805Z,21.00
2018-10-06T13:43:52.187Z,21.00
2018-10-06T13:46:24.690Z,21.10
2018-10-06T13:48:57.174Z,21.10
2018-10-06T13:51:29.661Z,21.10
2018-10-06T13:54:02.229Z,21.10
2018-10-06T13:57:05.845Z,21.10
2018-10-06T13:59:38.299Z,21.00
2018-10-06T14:02:10.881Z,21.10
2018-10-06T14:04:43.540Z,21.10
2018-10-06T14:07:16.155Z,21.10
2018-10-06T14:09:48.663Z,21.00
2018-10-06T14:12:21.352Z,20.90
2018-10-06T14:14:53.906Z,21.10
2018-10-06T14:17:26.420Z,21.00
2018-10-06T14:19:58.967Z,21.00
2018-10-06T14:22:31.499Z,20.90
2018-10-06T14:25:04.149Z,20.90
2018-10-06T14:27:36.753Z,20.80
2018-10-06T14:30:09.427Z,20.80
2018-10-06T14:32:42.012Z,20.90
2018-10-06T14:35:14.906Z,20.70
2018-10-06T14:37:47.346Z,20.60
2018-10-06T14:40:19.863Z,20.70
2018-10-06T14:42:52.328Z,20.70
2018-10-06T14:45:24.956Z,20.60
2018-10-06T14:47:57.524Z,20.70
2018-10-06T14:50:30.050Z,20.80
2018-10-06T14:53:02.716Z,20.80
2018-10-06T14:55:35.169Z,20.50
2018-10-06T14:58:07.615Z,20.40
2018-10-06T15:00:40.060Z,20.50
2018-10-06T15:03:12.646Z,20.60
2018-10-06T15:05:46.844Z,20.50
2018-10-06T15:08:19.345Z,20.50
2018-10-06T15:10:51.792Z,20.30
2018-10-06T15:13:24.451Z,20.20
2018-10-06T15:15:56.987Z,20.20
2018-10-06T15:18:29.519Z,20.10
2018-10-06T15:21:02.926Z,20.00
2018-10-06T15:23:35.483Z,19.90
2018-10-06T15:26:08.036Z,19.90
2018-10-06T15:28:40.540Z,19.90
2018-10-06T15:31:13.447Z,19.80
2018-10-06T15:33:45.919Z,19.70
2018-10-06T15:36:18.809Z,19.70
2018-10-06T15:38:51.264Z,19.60
2018-10-06T15:41:24.078Z,19.60
2018-10-06T15:43:56.539Z,19.50
2018-10-06T15:46:29.155Z,19.40
2018-10-06T15:49:01.744Z,19.40
2018-10-06T15:51:34.350Z,19.30
2018-10-06T15:54:06.773Z,19.30
2018-10-06T15:56:39.397Z,19.20
2018-10-06T15:59:11.915Z,19.10
2018-10-06T16:01:44.407Z,19.00
2018-10-06T16:04:17.001Z,19.00
2018-10-06T16:06:49.548Z,18.90
2018-10-06T16:09:22.043Z,18.80
2018-10-06T16:11:54.783Z,18.80
2018-10-06T16:14:27.343Z,18.70
2018-10-06T16:16:59.813Z,18.60
2018-10-06T16:19:32.301Z,18.50
2018-10-06T16:22:05.042Z,18.50
2018-10-06T16:24:37.545Z,18.40
2018-10-06T16:27:10.105Z,18.30
2018-10-06T16:29:42.861Z,18.30
2018-10-06T16:32:15.612Z,18.20
2018-10-06T16:34:48.093Z,18.20
2018-10-06T16:37:20.607Z,18.10
2018-10-06T16:39:53.074Z,18.10
2018-10-06T16:42:25.568Z,18.00
2018-10-06T16:44:58.063Z,18.10
2018-10-06T16:47:30.671Z,18.00
2018-10-06T16:50:03.141Z,17.90
2018-10-06T16:52:35.571Z,17.90
2018-10-06T16:55:08.011Z,17.80
2018-10-06T16:57:40.476Z,17.80
2018-10-06T17:00:12.964Z,17.80
2018-10-06T17:02:45.464Z,17.80
2018-10-06T17:05:17.869Z,17.70
2018-10-06T17:07:50.480Z,17.60
2018-10-06T17:10:22.920Z,17.50
2018-10-06T17:12:55.454Z,17.50
2018-10-06T17:15:27.825Z,17.50
2018-10-06T17:18:00.233Z,17.40
2018-10-06T17:20:32.727Z,17.40
2018-10-06T17:23:05.221Z,17.40
2018-10-06T17:25:37.688Z,17.20
2018-10-06T17:28:10.638Z,17.20
2018-10-06T17:30:43.461Z,17.20
2018-10-06T17:33:16.086Z,17.20
2018-10-06T17:35:48.556Z,17.10
2018-10-06T17:38:21.409Z,17.10
2018-10-06T17:40:53.880Z,17.10
2018-10-06T17:43:27.545Z,17.10
2018-10-06T17:46:00.122Z,17.10
2018-10-06T17:48:34.507Z,17.20
2018-10-06T17:51:06.899Z,17.10
2018-10-06T17:53:39.376Z,17.10
2018-10-06T17:56:11.873Z,17.10
2018-10-06T17:58:44.496Z,17.10
2018-10-06T18:01:16.910Z,17.00
2018-10-06T18:03:49.354Z,17.00
2018-10-06T18:06:21.851Z,17.10
2018-10-06T18:08:54.366Z,17.00
2018-10-06T18:11:26.804Z,17.00
2018-10-06T18:13:59.269Z,17.00
2018-10-06T18:16:31.733Z,17.00
2018-10-06T18:19:04.645Z,17.00
2018-10-06T18:21:37.176Z,17.00
2018-10-06T18:24:09.649Z,17.10
2018-10-06T18:26:42.204Z,17.10
2018-10-06T18:29:14.824Z,17.10
2018-10-06T18:31:47.340Z,17.10
2018-10-06T18:34:19.861Z,17.10
2018-10-06T18:36:52.445Z,17.10
2018-10-06T18:39:24.784Z,17.10
2018-10-06T18:41:57.202Z,17.10
2018-10-06T18:44:29.642Z,17.20
2018-10-06T18:47:02.117Z,17.10
2018-10-06T18:49:34.890Z,17.10
2018-10-06T18:52:07.359Z,17.10
2018-10-06T18:54:39.899Z,17.20
2018-10-06T18:57:12.811Z,17.20
2018-10-06T18:59:45.283Z,17.20
2018-10-06T19:02:17.772Z,17.10
2018-10-06T19:04:50.402Z,17.20
2018-10-06T19:07:22.909Z,17.30
2018-10-06T19:09:55.616Z,17.20
2018-10-06T19:12:28.014Z,17.20
2018-10-06T19:15:00.514Z,17.20
2018-10-06T19:17:32.998Z,17.20
2018-10-06T19:20:05.930Z,17.20
2018-10-06T19:22:38.448Z,17.20
2018-10-06T19:25:10.917Z,17.20
2018-10-06T19:27:43.501Z,17.30
2018-10-06T19:30:17.572Z,17.30
2018-10-06T19:32:50.169Z,17.40
2018-10-06T19:35:22.597Z,17.50
2018-10-06T19:37:55.037Z,17.50
2018-10-06T19:40:27.447Z,17.40
2018-10-06T19:42:59.907Z,17.40
2018-10-06T19:45:32.356Z,17.50
2018-10-06T19:48:04.795Z,17.50
2018-10-06T19:50:37.272Z,17.50
2018-10-06T19:53:09.661Z,17.50
2018-10-06T19:55:42.103Z,17.50
2018-10-06T19:58:14.560Z,17.50
2018-10-06T20:00:47.089Z,17.50
2018-10-06T20:03:19.575Z,17.50
2018-10-06T20:05:52.019Z,17.50
2018-10-06T20:08:24.494Z,17.40
2018-10-06T20:10:56.986Z,17.50
2018-10-06T20:13:29.402Z,17.50
2018-10-06T20:16:01.789Z,17.40
2018-10-06T20:18:34.215Z,17.40
2018-10-06T20:21:06.719Z,17.40
2018-10-06T20:23:39.105Z,17.40
2018-10-06T20:26:11.900Z,17.30
2018-10-06T20:28:44.357Z,17.30
2018-10-06T20:31:16.862Z,17.20
2018-10-06T20:33:49.425Z,17.10
2018-10-06T20:36:21.838Z,17.10
2018-10-06T20:38:54.340Z,17.10
2018-10-06T20:41:26.787Z,17.10
2018-10-06T20:43:59.275Z,17.00
2018-10-06T20:46:31.839Z,16.90
2018-10-06T20:49:04.330Z,16.90
2018-10-06T20:51:38.450Z,16.90
2018-10-06T20:54:11.012Z,16.90
2018-10-06T20:56:43.440Z,16.90
2018-10-06T20:59:15.976Z,16.90
2018-10-06T21:01:48.537Z,16.90
2018-10-06T21:04:21.042Z,16.90
2018-10-06T21:06:53.456Z,16.90
2018-10-06T21:09:25.885Z,16.90
2018-10-06T21:11:58.461Z,16.90
2018-10-06T21:14:30.907Z,16.90
2018-10-06T21:17:03.521Z,16.90
2018-10-06T21:19:35.962Z,16.90
2018-10-06T21:22:08.458Z,16.90
2018-10-06T21:24:41.001Z,16.80
2018-10-06T21:27:13.403Z,16.80
2018-10-06T21:29:46.240Z,16.70
2018-10-06T21:32:18.493Z,16.70
2018-10-06T21:34:50.993Z,16.70
2018-10-06T21:37:23.409Z,16.70
2018-10-06T21:39:55.820Z,16.60
2018-10-06T21:42:28.318Z,16.70
2018-10-06T21:45:00.744Z,16.60
2018-10-06T21:47:33.193Z,16.60
2018-10-06T21:50:05.761Z,16.60
2018-10-06T21:52:38.500Z,16.50
2018-10-06T21:55:10.936Z,16.50
2018-10-06T21:57:43.496Z,16.50
2018-10-06T22:00:15.942Z,16.50
2018-10-06T22:02:48.753Z,16.50
2018-10-06T22:05:21.199Z,16.50
2018-10-06T22:07:53.614Z,16.50
2018-10-06T22:10:26.485Z,16.50
2018-10-06T22:12:59.585Z,16.50
2018-10-06T22:15:32.062Z,16.60
2018-10-06T22:18:04.456Z,16.60
2018-10-06T22:20:36.870Z,16.50
2018-10-06T22:23:09.346Z,16.50
2018-10-06T22:25:41.725Z,16.50
2018-10-06T22:28:14.424Z,16.60
2018-10-06T22:30:46.816Z,16.60
2018-10-06T22:33:19.355Z,16.70
2018-10-06T22:35:51.832Z,16.70
2018-10-06T22:38:24.253Z,16.70
2018-10-06T22:40:56.694Z,16.70
2018-10-06T22:43:29.253Z,16.70
2018-10-06T22:46:01.678Z,16.70
2018-10-06T22:48:34.136Z,16.70
2018-10-06T22:51:06.619Z,16.60
2018-10-06T22:53:39.139Z,16.60
2018-10-06T22:56:11.553Z,16.60
2018-10-06T22:58:43.976Z,16.60
2018-10-06T23:01:16.403Z,16.60
2018-10-06T23:03:48.871Z,16.60
2018-10-06T23:06:21.364Z,16.60
2018-10-06T23:08:53.802Z,16.60
2018-10-06T23:11:26.247Z,16.60
2018-10-06T23:13:58.757Z,16.60
2018-10-06T23:16:31.186Z,16.60
2018-10-06T23:19:03.791Z,16.60
2018-10-06T23:21:36.253Z,16.60
2018-10-06T23:24:08.718Z,16.50
2018-10-06T23:26:41.180Z,16.60
2018-10-06T23:29:13.646Z,16.50
2018-10-06T23:31:46.102Z,16.50
2018-10-06T23:34:18.578Z,16.40
2018-10-06T23:36:51.045Z,16.40
2018-10-06T23:39:23.484Z,16.30
2018-10-06T23:41:55.948Z,16.30
2018-10-06T23:44:28.357Z,16.20
2018-10-06T23:47:00.919Z,16.20
2018-10-06T23:49:33.338Z,16.20
2018-10-06T23:52:06.111Z,16.20
2018-10-06T23:54:38.570Z,16.20
2018-10-06T23:57:11.027Z,16.20
2018-10-06T23:59:43.407Z,16.20
